createdAt,value
2022-11-03T00:01:35.008Z,4.20
2022-11-03T00:04:02.700Z,3.40
2022-11-03T00:06:31.632Z,3.80
2022-11-03T00:08:59.815Z,3.63
2022-11-03T00:11:27.324Z,4.00
2022-11-03T00:13:55.247Z,4.20
2022-11-03T00:16:22.772Z,3.93
2022-11-03T00:18:50.315Z,4.30
2022-11-03T00:21:18.005Z,4.50
2022-11-03T00:23:47.325Z,4.03
2022-11-03T00:26:16.141Z,4.67
2022-11-03T00:28:45.020Z,4.50
2022-11-03T00:31:14.405Z,4.77
2022-11-03T00:33:42.471Z,4.70
2022-11-03T00:36:13.267Z,4.23
2022-11-03T00:38:41.018Z,5.03
2022-11-03T00:41:10.981Z,4.70
2022-11-03T00:43:38.772Z,4.60
2022-11-03T00:46:07.297Z,4.03
2022-11-03T00:48:35.897Z,3.77
2022-11-03T00:51:09.151Z,4.53
2022-11-03T00:53:38.254Z,4.50
2022-11-03T00:56:07.223Z,4.90
2022-11-03T00:58:36.207Z,3.80
2022-11-03T01:01:07.302Z,5.00
2022-11-03T01:03:36.150Z,4.23
2022-11-03T01:06:21.485Z,3.77
2022-11-03T01:08:48.984Z,3.67
2022-11-03T01:11:36.426Z,4.17
2022-11-03T01:14:05.340Z,4.07
2022-11-03T01:16:32.937Z,3.63
2022-11-03T01:19:01.369Z,3.47
2022-11-03T01:21:28.951Z,4.47
2022-11-03T01:23:56.566Z,5.80
2022-11-03T01:26:24.104Z,4.00
2022-11-03T01:28:51.662Z,4.43
2022-11-03T01:31:22.915Z,5.60
2022-11-03T01:33:51.352Z,4.90
2022-11-03T01:36:19.130Z,4.60
2022-11-03T01:38:47.360Z,4.17
2022-11-03T01:41:18.120Z,3.60
2022-11-03T01:43:45.812Z,3.73
2022-11-03T01:46:18.307Z,4.30
2022-11-03T01:48:50.107Z,3.97
2022-11-03T01:51:20.895Z,3.20
2022-11-03T01:53:49.609Z,4.30
2022-11-03T01:56:17.704Z,3.73
2022-11-03T01:58:46.852Z,3.57
2022-11-03T02:01:14.434Z,3.60
2022-11-03T02:03:48.261Z,5.23
2022-11-03T02:06:16.270Z,4.60
2022-11-03T02:08:48.247Z,3.93
2022-11-03T02:11:33.543Z,4.10
2022-11-03T02:14:01.069Z,4.40
2022-11-03T02:16:31.521Z,5.03
2022-11-03T02:19:01.634Z,4.53
2022-11-03T02:21:31.255Z,3.87
2022-11-03T02:24:03.785Z,3.80
2022-11-03T02:26:32.632Z,4.43
2022-11-03T02:29:00.209Z,4.33
2022-11-03T02:31:33.365Z,3.80
2022-11-03T02:34:05.479Z,3.90
2022-11-03T02:36:38.216Z,3.50
2022-11-03T02:39:10.283Z,3.87
2022-11-03T02:41:40.066Z,4.07
2022-11-03T02:44:12.494Z,3.77
2022-11-03T02:46:41.823Z,4.50
2022-11-03T02:49:09.319Z,4.50
2022-11-03T02:51:36.890Z,5.40
2022-11-03T02:54:09.031Z,4.20
2022-11-03T02:56:40.376Z,4.20
2022-11-03T02:59:10.632Z,3.97
2022-11-03T03:01:47.351Z,4.47
2022-11-03T03:04:19.397Z,4.70
2022-11-03T03:06:49.670Z,4.37
2022-11-03T03:09:20.396Z,4.60
2022-11-03T03:11:50.350Z,4.40
2022-11-03T03:14:20.056Z,4.53
2022-11-03T03:16:54.834Z,4.10
2022-11-03T03:19:31.805Z,3.70
2022-11-03T03:22:03.807Z,4.23
2022-11-03T03:24:37.199Z,3.40
2022-11-03T03:27:08.583Z,3.80
2022-11-03T03:29:39.459Z,4.40
2022-11-03T03:32:09.746Z,4.00
2022-11-03T03:34:39.120Z,4.47
2022-11-03T03:37:07.664Z,4.10
2022-11-03T03:39:39.882Z,4.90
2022-11-03T03:42:10.000Z,4.70
2022-11-03T03:44:38.843Z,4.60
2022-11-03T03:47:10.726Z,4.60
2022-11-03T03:49:38.253Z,4.77
2022-11-03T03:52:05.984Z,4.00
2022-11-03T03:54:33.505Z,4.20
2022-11-03T03:57:03.318Z,4.40
2022-11-03T03:59:32.347Z,4.57
2022-11-03T04:02:00.472Z,5.47
2022-11-03T04:04:28.128Z,3.57
2022-11-03T04:07:09.663Z,4.00
2022-11-03T04:09:37.257Z,3.73
2022-11-03T04:12:22.804Z,4.00
2022-11-03T04:15:09.309Z,3.20
2022-11-03T04:17:54.721Z,4.10
2022-11-03T04:20:39.987Z,4.47
2022-11-03T04:23:07.543Z,4.00
2022-11-03T04:25:35.580Z,4.70
2022-11-03T04:28:03.331Z,3.90
2022-11-03T04:30:32.370Z,3.70
2022-11-03T04:32:59.934Z,4.00
2022-11-03T04:35:29.130Z,4.77
2022-11-03T04:37:59.339Z,4.90
2022-11-03T04:40:26.911Z,3.40
2022-11-03T04:42:54.603Z,3.73
2022-11-03T04:45:24.825Z,4.10
2022-11-03T04:47:53.991Z,3.70
2022-11-03T04:50:23.106Z,4.23
2022-11-03T04:52:55.835Z,3.60
2022-11-03T04:55:23.355Z,3.90
2022-11-03T04:57:55.835Z,4.30
2022-11-03T05:00:23.494Z,4.13
2022-11-03T05:02:56.095Z,4.13
2022-11-03T05:05:25.597Z,4.30
2022-11-03T05:07:54.936Z,4.13
2022-11-03T05:10:25.917Z,4.93
2022-11-03T05:12:54.959Z,3.50
2022-11-03T05:15:29.975Z,3.17
2022-11-03T05:18:00.230Z,4.67
2022-11-03T05:20:36.040Z,3.60
2022-11-03T05:23:05.669Z,3.30
2022-11-03T05:25:40.370Z,4.07
2022-11-03T05:28:20.122Z,3.70
2022-11-03T05:30:48.167Z,4.37
2022-11-03T05:33:20.466Z,3.50
2022-11-03T05:35:48.054Z,3.60
2022-11-03T05:38:16.902Z,3.90
2022-11-03T05:40:44.531Z,3.77
2022-11-03T05:43:14.476Z,3.47
2022-11-03T05:45:42.689Z,4.30
2022-11-03T05:48:15.373Z,4.90
2022-11-03T05:50:44.343Z,4.57
2022-11-03T05:53:29.764Z,5.43
2022-11-03T05:55:59.968Z,6.00
2022-11-03T05:58:31.009Z,6.07
2022-11-03T06:01:00.102Z,5.53
2022-11-03T06:03:29.883Z,5.60
2022-11-03T06:05:59.725Z,5.10
2022-11-03T06:08:29.974Z,5.10
2022-11-03T06:10:59.435Z,4.83
2022-11-03T06:13:31.238Z,4.80
2022-11-03T06:16:00.164Z,4.97
2022-11-03T06:18:34.590Z,3.90
2022-11-03T06:21:08.291Z,5.83
2022-11-03T06:23:37.375Z,5.37
2022-11-03T06:26:05.577Z,4.90
2022-11-03T06:28:36.718Z,4.83
2022-11-03T06:31:06.128Z,6.00
2022-11-03T06:33:36.055Z,6.53
2022-11-03T06:36:12.430Z,7.17
2022-11-03T06:38:40.107Z,6.00
2022-11-03T06:41:12.379Z,4.87
2022-11-03T06:43:42.122Z,5.80
2022-11-03T06:46:15.315Z,6.77
2022-11-03T06:51:28.646Z,7.27
2022-11-03T06:53:59.447Z,7.00
2022-11-03T06:56:30.169Z,6.40
2022-11-03T06:58:58.333Z,6.67
2022-11-03T07:01:27.529Z,5.33
2022-11-03T07:04:01.149Z,4.87
2022-11-03T07:06:32.981Z,5.50
2022-11-03T07:09:01.422Z,5.00
2022-11-03T07:11:30.770Z,5.10
2022-11-03T07:13:59.693Z,5.13
2022-11-03T07:16:29.803Z,5.97
2022-11-03T07:18:58.260Z,6.20
2022-11-03T07:21:35.703Z,6.33
2022-11-03T07:24:11.998Z,4.40
2022-11-03T07:26:39.568Z,5.33
2022-11-03T07:29:09.821Z,5.20
2022-11-03T07:31:37.327Z,4.37
2022-11-03T07:34:07.087Z,5.30
2022-11-03T07:36:36.041Z,5.23
2022-11-03T07:39:03.906Z,4.83
2022-11-03T07:41:34.623Z,5.93
2022-11-03T07:44:03.004Z,4.90
2022-11-03T07:46:30.902Z,5.37
2022-11-03T07:48:59.771Z,4.50
2022-11-03T07:51:29.740Z,4.63
2022-11-03T07:54:04.340Z,5.30
2022-11-03T07:56:36.757Z,4.50
2022-11-03T07:59:13.152Z,5.80
2022-11-03T08:01:43.084Z,6.17
2022-11-03T08:04:12.782Z,6.17
2022-11-03T08:06:40.374Z,5.70
2022-11-03T08:09:09.307Z,6.60
2022-11-03T08:11:37.252Z,6.47
2022-11-03T08:14:04.913Z,5.77
2022-11-03T08:16:32.590Z,6.23
2022-11-03T08:19:00.124Z,6.83
2022-11-03T08:21:27.635Z,7.90
2022-11-03T08:23:55.420Z,6.10
2022-11-03T08:26:24.335Z,6.70
2022-11-03T08:28:53.849Z,6.30
2022-11-03T08:31:23.291Z,6.00
2022-11-03T08:33:50.865Z,7.23
2022-11-03T08:36:18.479Z,8.40
2022-11-03T08:38:46.013Z,6.90
2022-11-03T08:41:13.572Z,6.10
2022-11-03T08:43:44.596Z,5.50
2022-11-03T08:46:17.565Z,6.20
2022-11-03T08:48:45.580Z,5.43
2022-11-03T08:51:14.476Z,5.00
2022-11-03T08:53:43.121Z,6.17
2022-11-03T08:56:12.948Z,6.07
2022-11-03T08:58:44.523Z,6.10
2022-11-03T09:01:12.248Z,4.80
2022-11-03T09:03:40.185Z,4.83
2022-11-03T09:06:08.306Z,6.77
2022-11-03T09:11:23.500Z,6.40
2022-11-03T09:13:53.767Z,6.10
2022-11-03T09:16:21.383Z,5.07
2022-11-03T09:18:48.985Z,5.20
2022-11-03T09:21:16.788Z,9.07
2022-11-03T09:23:44.631Z,5.87
2022-11-03T09:26:14.622Z,4.97
2022-11-03T09:28:42.257Z,7.27
2022-11-03T09:31:11.750Z,5.93
2022-11-03T09:33:45.357Z,5.43
2022-11-03T09:36:13.015Z,4.97
2022-11-03T09:38:40.593Z,5.33
2022-11-03T09:41:18.787Z,5.50
2022-11-03T09:43:54.874Z,5.60
2022-11-03T09:46:23.858Z,5.00
2022-11-03T09:48:51.899Z,5.60
2022-11-03T09:51:22.250Z,5.00
2022-11-03T09:53:50.253Z,5.87
2022-11-03T09:56:19.598Z,5.30
2022-11-03T09:58:54.235Z,6.13
2022-11-03T10:01:26.154Z,5.17
2022-11-03T10:03:54.162Z,5.57
2022-11-03T10:06:21.891Z,4.73
2022-11-03T10:08:50.374Z,6.43
2022-11-03T10:11:18.317Z,4.43
2022-11-03T10:13:48.788Z,5.30
2022-11-03T10:16:18.733Z,5.63
2022-11-03T10:18:47.818Z,4.20
2022-11-03T10:21:17.091Z,5.47
2022-11-03T10:23:45.416Z,5.03
2022-11-03T10:26:16.251Z,5.10
2022-11-03T10:29:04.388Z,4.57
2022-11-03T10:31:36.916Z,4.87
2022-11-03T10:34:06.680Z,4.40
2022-11-03T10:36:34.999Z,5.10
2022-11-03T10:39:24.678Z,3.70
2022-11-03T10:41:56.998Z,4.33
2022-11-03T10:44:27.100Z,3.47
2022-11-03T10:46:58.704Z,3.03
2022-11-03T10:49:28.888Z,3.50
2022-11-03T10:52:00.952Z,3.20
2022-11-03T10:54:29.705Z,4.17
2022-11-03T10:56:57.407Z,4.10
2022-11-03T10:59:31.685Z,3.40
2022-11-03T11:02:00.097Z,3.00
2022-11-03T11:04:29.582Z,3.90
2022-11-03T11:06:57.160Z,3.17
2022-11-03T11:09:26.726Z,3.10
2022-11-03T11:12:02.344Z,3.37
2022-11-03T11:14:39.322Z,3.53
2022-11-03T11:17:07.396Z,3.27
2022-11-03T11:20:05.240Z,3.57
2022-11-03T11:22:34.132Z,3.27
2022-11-03T11:25:03.273Z,2.93
2022-11-03T11:27:58.647Z,4.03
2022-11-03T11:30:59.799Z,2.90
2022-11-03T11:33:28.131Z,3.47
2022-11-03T11:36:21.222Z,3.43
2022-11-03T11:38:59.743Z,3.10
2022-11-03T11:42:04.963Z,3.40
2022-11-03T11:44:50.547Z,3.00
2022-11-03T11:47:23.991Z,2.90
2022-11-03T11:50:04.252Z,2.27
2022-11-03T11:52:31.754Z,2.80
2022-11-03T11:55:00.690Z,2.73
2022-11-03T11:57:31.864Z,3.10
2022-11-03T11:59:59.477Z,2.90
2022-11-03T12:02:31.035Z,4.23
2022-11-03T12:05:01.119Z,4.07
2022-11-03T12:07:33.467Z,2.80
2022-11-03T12:10:09.486Z,3.20
2022-11-03T12:12:37.011Z,4.17
2022-11-03T12:15:05.136Z,2.97
2022-11-03T12:17:33.882Z,3.30
2022-11-03T12:20:01.766Z,3.83
2022-11-03T12:22:47.324Z,2.90
2022-11-03T12:25:35.621Z,3.80
2022-11-03T12:28:03.133Z,3.07
2022-11-03T12:30:33.279Z,2.80
2022-11-03T12:33:03.108Z,2.90
2022-11-03T12:35:30.890Z,3.17
2022-11-03T12:37:58.732Z,2.93
2022-11-03T12:40:27.555Z,3.10
2022-11-03T12:42:56.455Z,2.87
2022-11-03T12:45:23.998Z,2.70
2022-11-03T12:47:51.602Z,2.67
2022-11-03T12:50:19.122Z,2.80
2022-11-03T12:52:46.616Z,2.93
2022-11-03T12:55:14.166Z,2.80
2022-11-03T12:57:42.255Z,2.73
2022-11-03T13:00:12.385Z,3.50
2022-11-03T13:02:40.058Z,3.47
2022-11-03T13:05:08.405Z,3.80
2022-11-03T13:07:35.973Z,2.57
2022-11-03T13:10:04.760Z,2.17
2022-11-03T13:12:31.432Z,2.30
2022-11-03T13:14:59.319Z,2.17
2022-11-03T13:17:35.847Z,2.70
2022-11-03T13:20:16.218Z,2.43
2022-11-03T13:22:44.612Z,3.13
2022-11-03T13:25:12.294Z,3.20
2022-11-03T13:27:40.054Z,2.10
2022-11-03T13:30:09.353Z,3.30
2022-11-03T13:32:38.384Z,2.70
2022-11-03T13:35:10.956Z,2.67
2022-11-03T13:37:41.292Z,2.60
2022-11-03T13:40:19.146Z,2.70
2022-11-03T13:42:57.144Z,2.93
2022-11-03T13:45:25.390Z,3.50
2022-11-03T13:48:52.496Z,2.97
2022-11-03T13:50:42.235Z,3.70
2022-11-03T13:56:00.676Z,3.50
2022-11-03T14:01:21.264Z,2.33
2022-11-03T14:06:37.809Z,2.47
2022-11-03T14:09:05.325Z,3.30
2022-11-03T14:11:50.648Z,3.03
2022-11-03T14:14:18.143Z,2.90
2022-11-03T14:16:45.790Z,3.70
2022-11-03T14:19:16.868Z,4.10
2022-11-03T14:21:44.400Z,3.27
2022-11-03T14:24:11.953Z,3.60
2022-11-03T14:26:42.797Z,2.50
2022-11-03T14:29:11.159Z,3.17
2022-11-03T14:31:38.677Z,3.40
2022-11-03T14:34:06.234Z,3.70
2022-11-03T14:36:35.149Z,3.70
2022-11-03T14:39:02.692Z,4.80
2022-11-03T14:41:47.915Z,6.13
2022-11-03T14:44:15.574Z,4.60
2022-11-03T14:46:43.164Z,4.50
2022-11-03T14:49:10.777Z,5.30
2022-11-03T14:51:39.649Z,4.97
2022-11-03T14:54:07.367Z,3.93
2022-11-03T14:56:35.006Z,3.97
2022-11-03T14:59:02.635Z,3.87
2022-11-03T15:01:30.367Z,3.53
2022-11-03T15:03:58.016Z,5.57
2022-11-03T15:06:25.833Z,5.10
2022-11-03T15:08:56.626Z,4.93
2022-11-03T15:11:24.637Z,5.23
2022-11-03T15:13:52.813Z,4.90
2022-11-03T15:16:20.576Z,5.97
2022-11-03T15:18:48.415Z,4.70
2022-11-03T15:21:16.845Z,5.80
2022-11-03T15:26:33.845Z,6.57
2022-11-03T15:29:01.573Z,7.40
2022-11-03T15:31:29.346Z,6.30
2022-11-03T15:33:57.222Z,7.13
2022-11-03T15:36:25.018Z,6.00
2022-11-03T15:38:53.042Z,6.57
2022-11-03T15:41:20.780Z,5.60
2022-11-03T15:43:51.024Z,5.10
2022-11-03T15:46:20.307Z,4.70
2022-11-03T15:48:49.157Z,5.40
2022-11-03T15:51:17.157Z,5.97
2022-11-03T15:53:58.912Z,5.27
2022-11-03T15:56:27.172Z,4.20
2022-11-03T15:58:56.611Z,4.40
2022-11-03T16:01:24.466Z,5.07
2022-11-03T16:03:52.406Z,4.50
2022-11-03T16:06:24.233Z,4.83
2022-11-03T16:09:02.714Z,6.23
2022-11-03T16:11:30.418Z,4.67
2022-11-03T16:13:59.802Z,3.73
2022-11-03T16:16:27.318Z,4.00
2022-11-03T16:18:54.829Z,4.90
2022-11-03T16:21:22.337Z,4.30
2022-11-03T16:23:49.842Z,5.40
2022-11-03T16:26:21.691Z,5.40
2022-11-03T16:28:49.220Z,4.80
2022-11-03T16:31:18.055Z,4.80
2022-11-03T16:33:45.590Z,5.10
2022-11-03T16:36:13.190Z,4.23
2022-11-03T16:38:40.796Z,5.37
2022-11-03T16:41:08.410Z,6.17
2022-11-03T16:43:36.031Z,5.53
2022-11-03T16:46:03.836Z,6.50
2022-11-03T16:48:32.697Z,5.37
2022-11-03T16:51:00.220Z,6.03
2022-11-03T16:53:27.764Z,7.63
2022-11-03T16:55:55.342Z,7.77
2022-11-03T16:58:22.958Z,8.03
2022-11-03T17:00:50.546Z,12.30
2022-11-03T17:03:18.102Z,13.63
2022-11-03T17:05:46.923Z,12.80
2022-11-03T17:08:46.334Z,10.90
2022-11-03T17:11:01.991Z,9.13
2022-11-03T17:13:29.698Z,8.10
2022-11-03T17:15:57.220Z,7.03
2022-11-03T17:18:24.876Z,8.10
2022-11-03T17:20:53.856Z,7.13
2022-11-03T17:23:25.143Z,7.07
2022-11-03T17:25:52.699Z,7.53
2022-11-03T17:28:20.394Z,6.90
2022-11-03T17:30:50.715Z,7.03
2022-11-03T17:33:19.556Z,7.77
2022-11-03T17:35:47.442Z,7.57
2022-11-03T17:38:17.582Z,7.40
2022-11-03T17:40:46.968Z,11.47
2022-11-03T17:43:19.252Z,13.30
2022-11-03T17:45:46.874Z,15.00
2022-11-03T17:48:16.455Z,15.03
2022-11-03T17:50:46.722Z,14.03
2022-11-03T17:53:21.187Z,15.97
2022-11-03T17:56:02.800Z,14.40
2022-11-03T17:58:43.231Z,13.63
2022-11-03T18:01:16.895Z,11.87
2022-11-03T18:03:47.342Z,13.30
2022-11-03T18:06:18.945Z,12.57
2022-11-03T18:08:48.486Z,10.87
2022-11-03T18:11:32.431Z,10.57
2022-11-03T18:14:02.484Z,12.33
2022-11-03T18:16:30.249Z,10.93
2022-11-03T18:18:58.322Z,9.80
2022-11-03T18:21:31.323Z,9.17
2022-11-03T18:24:00.588Z,9.87
2022-11-03T18:26:28.606Z,8.70
2022-11-03T18:28:56.452Z,8.17
2022-11-03T18:31:34.433Z,8.40
2022-11-03T18:34:04.406Z,9.43
2022-11-03T18:36:34.564Z,7.60
2022-11-03T18:39:03.771Z,8.50
2022-11-03T18:41:43.910Z,8.57
2022-11-03T18:44:20.022Z,8.67
2022-11-03T18:46:48.266Z,8.33
2022-11-03T18:49:16.444Z,9.67
2022-11-03T18:51:47.250Z,9.40
2022-11-03T18:56:45.653Z,11.97
2022-11-03T18:59:21.475Z,11.83
2022-11-03T19:01:49.405Z,10.60
2022-11-03T19:04:17.661Z,10.40
2022-11-03T19:06:51.626Z,9.00
2022-11-03T19:09:22.216Z,9.00
2022-11-03T19:11:50.486Z,6.93
2022-11-03T19:14:23.961Z,9.37
2022-11-03T19:17:17.182Z,8.23
2022-11-03T19:19:45.542Z,7.40
2022-11-03T19:22:14.697Z,6.80
2022-11-03T19:24:43.751Z,5.73
2022-11-03T19:27:15.477Z,6.70
2022-11-03T19:29:43.341Z,6.13
2022-11-03T19:32:17.253Z,5.83
2022-11-03T19:34:45.246Z,7.10
2022-11-03T19:37:13.506Z,7.90
2022-11-03T19:39:43.784Z,7.17
2022-11-03T19:42:29.399Z,7.20
2022-11-03T19:44:58.208Z,7.10
2022-11-03T19:47:31.535Z,7.10
2022-11-03T19:50:01.630Z,7.03
2022-11-03T19:52:30.430Z,6.10
2022-11-03T19:55:02.180Z,6.97
2022-11-03T19:57:32.357Z,7.90
2022-11-03T20:00:01.978Z,7.40
2022-11-03T20:02:29.893Z,6.73
2022-11-03T20:04:57.758Z,6.93
2022-11-03T20:07:31.473Z,7.53
2022-11-03T20:10:02.580Z,7.90
2022-11-03T20:12:31.481Z,6.13
2022-11-03T20:14:59.574Z,7.87
2022-11-03T20:17:27.572Z,6.30
2022-11-03T20:19:58.787Z,7.23
2022-11-03T20:22:31.262Z,7.67
2022-11-03T20:25:03.075Z,7.80
2022-11-03T20:27:32.408Z,8.83
2022-11-03T20:30:00.271Z,9.50
2022-11-03T20:32:28.880Z,8.30
2022-11-03T20:34:57.078Z,8.17
2022-11-03T20:37:24.955Z,8.77
2022-11-03T20:39:53.112Z,8.10
2022-11-03T20:42:24.000Z,7.77
2022-11-03T20:44:51.873Z,6.10
2022-11-03T20:47:19.897Z,5.77
2022-11-03T20:49:48.425Z,6.83
2022-11-03T20:52:16.678Z,4.73
2022-11-03T20:54:51.096Z,6.17
2022-11-03T20:57:22.854Z,5.40
2022-11-03T20:59:50.746Z,5.37
2022-11-03T21:02:18.517Z,5.40
2022-11-03T21:04:47.911Z,4.70
2022-11-03T21:07:16.730Z,5.03
2022-11-03T21:09:44.751Z,6.60
2022-11-03T21:12:16.528Z,6.23
2022-11-03T21:15:05.989Z,5.13
2022-11-03T21:18:02.838Z,6.03
2022-11-03T21:20:32.741Z,5.63
2022-11-03T21:23:02.876Z,5.23
2022-11-03T21:25:30.566Z,5.10
2022-11-03T21:28:00.048Z,5.47
2022-11-03T21:30:29.109Z,4.57
2022-11-03T21:32:56.833Z,4.93
2022-11-03T21:35:24.831Z,4.63
2022-11-03T21:37:52.703Z,4.77
2022-11-03T21:40:20.834Z,4.40
2022-11-03T21:43:06.874Z,4.50
2022-11-03T21:45:36.116Z,4.53
2022-11-03T21:48:21.913Z,4.20
2022-11-03T21:50:50.120Z,4.80
2022-11-03T21:53:22.335Z,5.20
2022-11-03T21:55:50.842Z,4.10
2022-11-03T21:58:18.594Z,4.50
2022-11-03T22:00:47.943Z,4.73
2022-11-03T22:03:15.927Z,4.47
2022-11-03T22:05:45.491Z,5.20
2022-11-03T22:08:13.287Z,5.73
2022-11-03T22:10:43.968Z,5.30
2022-11-03T22:13:12.883Z,4.83
2022-11-03T22:16:00.049Z,5.30
2022-11-03T22:18:29.297Z,5.67
2022-11-03T22:21:16.015Z,5.33
2022-11-03T22:24:04.535Z,5.50
2022-11-03T22:26:49.767Z,5.70
2022-11-03T22:29:36.557Z,5.67
2022-11-03T22:32:22.103Z,5.90
2022-11-03T22:35:48.330Z,5.50
2022-11-03T22:38:18.256Z,6.57
2022-11-03T22:41:05.873Z,6.33
2022-11-03T22:43:51.260Z,5.50
2022-11-03T22:46:19.017Z,6.73
2022-11-03T22:48:46.832Z,7.53
2022-11-03T22:51:18.714Z,6.13
2022-11-03T22:54:04.048Z,5.90
2022-11-03T22:56:31.910Z,5.70
2022-11-03T22:59:02.624Z,6.03
2022-11-03T23:01:47.481Z,6.20
2022-11-03T23:04:20.696Z,6.90
2022-11-03T23:07:28.424Z,6.87
2022-11-03T23:09:54.776Z,5.80
2022-11-03T23:12:40.600Z,6.93
2022-11-03T23:15:28.453Z,6.67
2022-11-03T23:18:16.567Z,7.23
2022-11-03T23:21:02.109Z,6.90
2022-11-03T23:24:06.589Z,5.70
2022-11-03T23:26:49.130Z,5.87
2022-11-03T23:30:14.777Z,5.70
2022-11-03T23:32:36.269Z,6.63
2022-11-03T23:35:05.487Z,6.20
2022-11-03T23:37:34.459Z,5.73
2022-11-03T23:40:03.468Z,6.80
2022-11-03T23:42:31.172Z,5.70
2022-11-03T23:45:16.638Z,7.00
2022-11-03T23:48:01.880Z,7.33
2022-11-03T23:50:29.732Z,6.87
2022-11-03T23:52:57.359Z,6.53
2022-11-03T23:55:46.374Z,5.93
2022-11-03T23:58:19.227Z,6.07
